Accueil
METAR-TAF:

METAR-TAF

Aéroports :

Aéroport de Nador-Al Aroui

Nador, Maroc

latitude: 34-59-20N, longitude: 003-01-42W, altitude: 175 m

Observation

Le bulletin a été fait il y a 35 minutes, à 15:00 UTC
Vent 2 kt de direction variable
Température 20°C
Humidité 28%
Pression 1026 hPa
Visibilité 10 km ou plus
pas de nuages en-dessous de 1500 mètres et pas de cumulonimbus.

METAR: GMMW 151500Z VRB02KT CAVOK 20/01 Q1026 NOSIG

Heure: 15:35 (15:35 UTC)

Prévision

Le bulletin a été fait il y a 4 heures et 35 minutes, à 11:00 UTC
Prévision valable du 15 à 12 UTC au 16 à 18 UTC
Vent 4 kt de sud
Visibilité 10 km ou plus
pas de nuages en-dessous de 1500 mètres et pas de cumulonimbus.
Probabilité 30%
du 15 à 20 UTC au 16 à 03 UTC
Visibilité: 3000 m
brume

TAF: GMMW 151100Z 1512/1618 18004KT CAVOK PROB30 1520/1603 3000 BR

Observations et prévisions météorologiques de plus de 4000 aéroports (messages METAR et TAF).

Les stations disponibles sont représentées par des disques jaunes et rouges sur la carte.

Passer la souris dessus pour voir le nom de la station.

Cliquer dessus pour voir les observations et prévisions météorologiques.

Pour changer de carte: cliquez sur les boutons verts avec une croix noire pour zoomer, sur le bouton vert avec un tiret pour effectuer un zoom arrière, ou sur les flèches vertes pour les cartes adjacentes.


METAR-TAF: